sensor_id;sensor_type;location;lat;lon;timestamp;pressure;altitude;pressure_sealevel;temperature;humidity
70730;BME280;58315;53.336;55.932;2023-06-14T00:01:08;100232.59;;;20.19;37.81
70730;BME280;58315;53.336;55.932;2023-06-14T00:03:35;100233.63;;;20.18;37.69
70730;BME280;58315;53.336;55.932;2023-06-14T00:06:02;100234.25;;;20.20;37.59
70730;BME280;58315;53.336;55.932;2023-06-14T00:08:28;100233.06;;;20.23;37.52
70730;BME280;58315;53.336;55.932;2023-06-14T00:10:54;100228.78;;;20.29;37.46
70730;BME280;58315;53.336;55.932;2023-06-14T00:13:20;100234.81;;;20.31;37.07
70730;BME280;58315;53.336;55.932;2023-06-14T00:15:46;100235.44;;;20.33;37.04
70730;BME280;58315;53.336;55.932;2023-06-14T00:18:13;100236.47;;;20.32;37.03
70730;BME280;58315;53.336;55.932;2023-06-14T00:20:41;100240.28;;;20.37;37.07
70730;BME280;58315;53.336;55.932;2023-06-14T00:23:07;100247.75;;;20.42;36.65
70730;BME280;58315;53.336;55.932;2023-06-14T00:25:34;100255.44;;;20.45;36.62
70730;BME280;58315;53.336;55.932;2023-06-14T00:28:00;100249.72;;;20.48;36.80
70730;BME280;58315;53.336;55.932;2023-06-14T00:30:27;100248.34;;;20.52;36.88
70730;BME280;58315;53.336;55.932;2023-06-14T00:32:58;100251.19;;;20.51;36.37
70730;BME280;58315;53.336;55.932;2023-06-14T00:35:26;100248.50;;;20.51;36.53
70730;BME280;58315;53.336;55.932;2023-06-14T00:37:52;100243.81;;;20.53;36.49
70730;BME280;58315;53.336;55.932;2023-06-14T00:40:21;100254.25;;;20.62;36.52
70730;BME280;58315;53.336;55.932;2023-06-14T00:42:47;100252.88;;;20.66;36.30
70730;BME280;58315;53.336;55.932;2023-06-14T00:45:14;100248.50;;;20.65;36.08
70730;BME280;58315;53.336;55.932;2023-06-14T00:47:41;100247.75;;;20.71;35.81
70730;BME280;58315;53.336;55.932;2023-06-14T00:50:10;100247.63;;;20.80;35.89
70730;BME280;58315;53.336;55.932;2023-06-14T00:52:37;100245.88;;;20.72;36.29
70730;BME280;58315;53.336;55.932;2023-06-14T00:55:04;100263.75;;;20.80;35.70
70730;BME280;58315;53.336;55.932;2023-06-14T00:57:32;100266.09;;;20.68;35.88
70730;BME280;58315;53.336;55.932;2023-06-14T00:59:58;100265.50;;;20.73;35.95
70730;BME280;58315;53.336;55.932;2023-06-14T01:02:24;100263.25;;;20.91;35.73
70730;BME280;58315;53.336;55.932;2023-06-14T01:04:51;100263.91;;;20.93;35.30
70730;BME280;58315;53.336;55.932;2023-06-14T01:10:29;100266.03;;;20.98;35.21
70730;BME280;58315;53.336;55.932;2023-06-14T01:15:36;100272.09;;;20.85;35.60
70730;BME280;58315;53.336;55.932;2023-06-14T01:18:04;100269.47;;;20.91;35.54
70730;BME280;58315;53.336;55.932;2023-06-14T01:20:32;100271.88;;;21.23;35.15
70730;BME280;58315;53.336;55.932;2023-06-14T01:22:59;100267.16;;;21.46;34.56
70730;BME280;58315;53.336;55.932;2023-06-14T01:25:26;100272.81;;;21.51;34.32
70730;BME280;58315;53.336;55.932;2023-06-14T01:27:55;100285.28;;;21.59;34.05
70730;BME280;58315;53.336;55.932;2023-06-14T01:30:26;100282.09;;;21.49;34.14
70730;BME280;58315;53.336;55.932;2023-06-14T01:32:55;100290.00;;;21.57;34.25
70730;BME280;58315;53.336;55.932;2023-06-14T01:35:22;100290.53;;;21.67;34.29
70730;BME280;58315;53.336;55.932;2023-06-14T01:37:49;100293.34;;;21.59;34.03
70730;BME280;58315;53.336;55.932;2023-06-14T01:40:17;100292.47;;;21.52;34.29
70730;BME280;58315;53.336;55.932;2023-06-14T01:42:46;100296.94;;;21.66;34.33
70730;BME280;58315;53.336;55.932;2023-06-14T01:45:14;100303.00;;;21.75;33.77
70730;BME280;58315;53.336;55.932;2023-06-14T01:47:41;100300.50;;;21.73;33.89
70730;BME280;58315;53.336;55.932;2023-06-14T01:50:08;100302.38;;;21.73;34.08
70730;BME280;58315;53.336;55.932;2023-06-14T01:52:37;100296.78;;;21.74;33.64
70730;BME280;58315;53.336;55.932;2023-06-14T01:55:04;100305.31;;;21.78;33.49
70730;BME280;58315;53.336;55.932;2023-06-14T01:57:31;100303.72;;;21.83;33.54
70730;BME280;58315;53.336;55.932;2023-06-14T01:59:59;100300.03;;;21.91;33.66
70730;BME280;58315;53.336;55.932;2023-06-14T02:02:25;100301.16;;;22.03;33.09
70730;BME280;58315;53.336;55.932;2023-06-14T02:04:52;100301.84;;;22.12;33.14
70730;BME280;58315;53.336;55.932;2023-06-14T02:07:23;100300.94;;;22.26;32.86
70730;BME280;58315;53.336;55.932;2023-06-14T02:09:51;100296.16;;;22.22;33.34
70730;BME280;58315;53.336;55.932;2023-06-14T02:12:17;100305.19;;;22.42;32.68
70730;BME280;58315;53.336;55.932;2023-06-14T02:14:43;100297.81;;;22.57;32.74
70730;BME280;58315;53.336;55.932;2023-06-14T02:17:10;100301.38;;;22.65;32.65
70730;BME280;58315;53.336;55.932;2023-06-14T02:19:37;100307.09;;;22.90;32.17
70730;BME280;58315;53.336;55.932;2023-06-14T02:22:04;100298.47;;;23.07;31.89
70730;BME280;58315;53.336;55.932;2023-06-14T02:24:30;100306.97;;;23.18;31.68
70730;BME280;58315;53.336;55.932;2023-06-14T02:26:56;100295.34;;;23.10;31.64
70730;BME280;58315;53.336;55.932;2023-06-14T02:29:22;100298.91;;;23.18;30.72
70730;BME280;58315;53.336;55.932;2023-06-14T02:31:48;100299.38;;;23.41;31.12
70730;BME280;58315;53.336;55.932;2023-06-14T02:34:15;100296.06;;;23.52;30.29
70730;BME280;58315;53.336;55.932;2023-06-14T02:36:46;100297.28;;;23.43;30.99
70730;BME280;58315;53.336;55.932;2023-06-14T02:39:14;100303.59;;;23.70;30.57
70730;BME280;58315;53.336;55.932;2023-06-14T02:41:40;100309.81;;;24.11;29.98
70730;BME280;58315;53.336;55.932;2023-06-14T02:44:06;100306.59;;;24.67;29.57
70730;BME280;58315;53.336;55.932;2023-06-14T02:46:35;100304.38;;;25.40;28.75
70730;BME280;58315;53.336;55.932;2023-06-14T02:49:02;100312.72;;;25.95;28.16
70730;BME280;58315;53.336;55.932;2023-06-14T02:51:28;100306.56;;;26.32;27.61
70730;BME280;58315;53.336;55.932;2023-06-14T02:53:54;100303.81;;;26.75;27.27
70730;BME280;58315;53.336;55.932;2023-06-14T02:56:20;100316.16;;;27.38;26.54
70730;BME280;58315;53.336;55.932;2023-06-14T02:58:48;100310.19;;;28.13;26.01
70730;BME280;58315;53.336;55.932;2023-06-14T03:01:15;100316.13;;;28.86;24.79
70730;BME280;58315;53.336;55.932;2023-06-14T03:03:42;100312.53;;;29.37;24.32
70730;BME280;58315;53.336;55.932;2023-06-14T03:06:08;100311.84;;;29.92;23.89
70730;BME280;58315;53.336;55.932;2023-06-14T03:08:36;100314.78;;;30.63;22.64
70730;BME280;58315;53.336;55.932;2023-06-14T03:11:09;100312.13;;;31.34;22.53
70730;BME280;58315;53.336;55.932;2023-06-14T03:13:36;100320.84;;;31.63;21.11
70730;BME280;58315;53.336;55.932;2023-06-14T03:16:05;100320.03;;;31.95;21.61
70730;BME280;58315;53.336;55.932;2023-06-14T03:18:34;100320.41;;;32.51;21.48
70730;BME280;58315;53.336;55.932;2023-06-14T03:21:03;100315.66;;;32.89;20.64
70730;BME280;58315;53.336;55.932;2023-06-14T03:23:30;100309.47;;;33.34;20.66
70730;BME280;58315;53.336;55.932;2023-06-14T03:25:57;100314.66;;;33.31;19.48
70730;BME280;58315;53.336;55.932;2023-06-14T03:28:23;100310.31;;;33.25;19.95
70730;BME280;58315;53.336;55.932;2023-06-14T03:30:51;100310.84;;;33.42;20.26
70730;BME280;58315;53.336;55.932;2023-06-14T03:33:18;100307.59;;;33.71;19.62
70730;BME280;58315;53.336;55.932;2023-06-14T03:35:45;100315.28;;;33.84;19.98
70730;BME280;58315;53.336;55.932;2023-06-14T03:38:11;100309.81;;;33.69;19.51
70730;BME280;58315;53.336;55.932;2023-06-14T03:40:37;100316.59;;;33.46;19.39
70730;BME280;58315;53.336;55.932;2023-06-14T03:43:05;100311.47;;;33.90;19.69
70730;BME280;58315;53.336;55.932;2023-06-14T03:45:31;100311.44;;;34.16;19.20
70730;BME280;58315;53.336;55.932;2023-06-14T03:47:59;100319.09;;;34.34;19.39
70730;BME280;58315;53.336;55.932;2023-06-14T03:50:27;100315.31;;;34.04;19.10
70730;BME280;58315;53.336;55.932;2023-06-14T03:52:55;100307.53;;;34.42;19.30
70730;BME280;58315;53.336;55.932;2023-06-14T03:55:22;100302.19;;;34.76;18.80
70730;BME280;58315;53.336;55.932;2023-06-14T03:57:51;100312.81;;;35.03;18.58
70730;BME280;58315;53.336;55.932;2023-06-14T04:00:18;100304.50;;;35.14;18.75
70730;BME280;58315;53.336;55.932;2023-06-14T04:02:44;100303.56;;;35.73;18.42
70730;BME280;58315;53.336;55.932;2023-06-14T04:05:11;100301.22;;;35.85;18.10
70730;BME280;58315;53.336;55.932;2023-06-14T04:07:43;100309.50;;;36.38;18.33
70730;BME280;58315;53.336;55.932;2023-06-14T04:10:12;100302.50;;;36.75;17.56
70730;BME280;58315;53.336;55.932;2023-06-14T04:12:39;100302.94;;;36.82;17.61
70730;BME280;58315;53.336;55.932;2023-06-14T04:15:06;100307.09;;;36.80;17.52
70730;BME280;58315;53.336;55.932;2023-06-14T04:17:34;100306.22;;;36.84;17.54
70730;BME280;58315;53.336;55.932;2023-06-14T04:20:04;100306.34;;;36.74;17.41
70730;BME280;58315;53.336;55.932;2023-06-14T04:22:32;100300.81;;;36.31;17.47
70730;BME280;58315;53.336;55.932;2023-06-14T04:24:59;100304.97;;;36.53;17.53
70730;BME280;58315;53.336;55.932;2023-06-14T04:27:26;100303.31;;;35.98;17.74
70730;BME280;58315;53.336;55.932;2023-06-14T04:29:54;100301.97;;;36.25;17.89
70730;BME280;58315;53.336;55.932;2023-06-14T04:32:31;100301.25;;;36.38;17.77
70730;BME280;58315;53.336;55.932;2023-06-14T04:34:59;100305.88;;;36.67;17.07
70730;BME280;58315;53.336;55.932;2023-06-14T04:37:29;100307.16;;;37.17;17.25
70730;BME280;58315;53.336;55.932;2023-06-14T04:39:57;100306.91;;;37.52;16.96
70730;BME280;58315;53.336;55.932;2023-06-14T04:42:23;100299.44;;;36.77;17.00
70730;BME280;58315;53.336;55.932;2023-06-14T04:44:57;100303.94;;;36.67;17.73
70730;BME280;58315;53.336;55.932;2023-06-14T04:47:24;100296.81;;;37.09;17.17
70730;BME280;58315;53.336;55.932;2023-06-14T04:49:51;100288.28;;;36.87;17.31
70730;BME280;58315;53.336;55.932;2023-06-14T04:52:20;100293.00;;;37.05;17.66
70730;BME280;58315;53.336;55.932;2023-06-14T04:54:47;100289.81;;;37.17;17.33
70730;BME280;58315;53.336;55.932;2023-06-14T04:57:19;100294.34;;;37.08;17.14
70730;BME280;58315;53.336;55.932;2023-06-14T04:59:49;100286.06;;;37.08;16.71
70730;BME280;58315;53.336;55.932;2023-06-14T05:02:24;100288.97;;;37.35;16.82
70730;BME280;58315;53.336;55.932;2023-06-14T05:04:53;100282.69;;;37.68;16.56
70730;BME280;58315;53.336;55.932;2023-06-14T05:07:19;100286.75;;;38.03;16.59
70730;BME280;58315;53.336;55.932;2023-06-14T05:09:47;100276.66;;;38.12;15.94
70730;BME280;58315;53.336;55.932;2023-06-14T05:12:13;100280.91;;;37.58;16.62
70730;BME280;58315;53.336;55.932;2023-06-14T05:14:44;100275.72;;;37.56;16.51
70730;BME280;58315;53.336;55.932;2023-06-14T05:17:11;100280.41;;;37.88;16.14
70730;BME280;58315;53.336;55.932;2023-06-14T05:19:37;100278.06;;;38.09;16.03
70730;BME280;58315;53.336;55.932;2023-06-14T05:22:03;100284.69;;;37.95;15.75
70730;BME280;58315;53.336;55.932;2023-06-14T05:24:30;100277.50;;;38.40;15.85
70730;BME280;58315;53.336;55.932;2023-06-14T05:26:57;100274.34;;;37.86;16.03
70730;BME280;58315;53.336;55.932;2023-06-14T05:29:23;100272.25;;;38.66;16.17
70730;BME280;58315;53.336;55.932;2023-06-14T05:31:50;100282.03;;;39.00;15.92
70730;BME280;58315;53.336;55.932;2023-06-14T05:34:16;100272.75;;;39.18;15.21
70730;BME280;58315;53.336;55.932;2023-06-14T05:36:42;100265.56;;;39.31;15.44
70730;BME280;58315;53.336;55.932;2023-06-14T05:39:08;100272.38;;;39.11;15.36
70730;BME280;58315;53.336;55.932;2023-06-14T05:41:35;100261.44;;;38.56;15.61
70730;BME280;58315;53.336;55.932;2023-06-14T05:44:01;100258.50;;;37.78;15.64
70730;BME280;58315;53.336;55.932;2023-06-14T05:46:27;100256.16;;;37.20;15.93
70730;BME280;58315;53.336;55.932;2023-06-14T05:48:55;100263.88;;;37.18;16.38
70730;BME280;58315;53.336;55.932;2023-06-14T05:51:22;100256.66;;;37.41;16.09
70730;BME280;58315;53.336;55.932;2023-06-14T05:53:50;100259.59;;;37.77;15.86
70730;BME280;58315;53.336;55.932;2023-06-14T05:56:17;100257.31;;;37.98;16.19
70730;BME280;58315;53.336;55.932;2023-06-14T05:58:45;100252.13;;;38.66;15.75
70730;BME280;58315;53.336;55.932;2023-06-14T06:01:11;100252.63;;;38.68;15.51
70730;BME280;58315;53.336;55.932;2023-06-14T06:03:39;100245.97;;;39.05;15.78
70730;BME280;58315;53.336;55.932;2023-06-14T06:06:05;100251.56;;;38.91;15.63
70730;BME280;58315;53.336;55.932;2023-06-14T06:08:31;100239.53;;;39.54;15.25
70730;BME280;58315;53.336;55.932;2023-06-14T06:10:58;100235.03;;;39.67;15.47
70730;BME280;58315;53.336;55.932;2023-06-14T06:13:25;100235.69;;;39.64;15.04
70730;BME280;58315;53.336;55.932;2023-06-14T06:15:51;100229.91;;;39.52;15.35
70730;BME280;58315;53.336;55.932;2023-06-14T06:18:17;100237.19;;;39.03;15.36
70730;BME280;58315;53.336;55.932;2023-06-14T06:20:43;100241.59;;;38.12;15.83
70730;BME280;58315;53.336;55.932;2023-06-14T06:23:10;100244.88;;;38.01;15.89
70730;BME280;58315;53.336;55.932;2023-06-14T06:25:36;100237.41;;;37.55;16.20
70730;BME280;58315;53.336;55.932;2023-06-14T06:28:02;100236.88;;;37.20;17.03
70730;BME280;58315;53.336;55.932;2023-06-14T06:30:29;100231.06;;;36.65;16.78
70730;BME280;58315;53.336;55.932;2023-06-14T06:32:55;100222.38;;;36.10;17.18
70730;BME280;58315;53.336;55.932;2023-06-14T06:35:25;100221.28;;;35.53;18.00
70730;BME280;58315;53.336;55.932;2023-06-14T06:37:51;100222.81;;;34.90;18.53
70730;BME280;58315;53.336;55.932;2023-06-14T06:40:17;100215.41;;;34.26;18.90
70730;BME280;58315;53.336;55.932;2023-06-14T06:42:43;100220.19;;;33.74;19.30
70730;BME280;58315;53.336;55.932;2023-06-14T06:45:12;100216.09;;;33.26;19.37
70730;BME280;58315;53.336;55.932;2023-06-14T06:47:38;100218.19;;;32.78;20.66
70730;BME280;58315;53.336;55.932;2023-06-14T06:50:04;100211.56;;;32.48;19.93
70730;BME280;58315;53.336;55.932;2023-06-14T06:52:33;100207.34;;;31.83;20.95
70730;BME280;58315;53.336;55.932;2023-06-14T06:55:00;100212.75;;;31.73;21.00
70730;BME280;58315;53.336;55.932;2023-06-14T06:57:27;100213.78;;;31.66;21.02
70730;BME280;58315;53.336;55.932;2023-06-14T06:59:55;100205.88;;;31.65;21.22
70730;BME280;58315;53.336;55.932;2023-06-14T07:02:21;100200.69;;;31.68;20.79
70730;BME280;58315;53.336;55.932;2023-06-14T07:04:47;100201.13;;;31.55;20.88
70730;BME280;58315;53.336;55.932;2023-06-14T07:07:13;100204.75;;;31.61;21.16
70730;BME280;58315;53.336;55.932;2023-06-14T07:09:39;100203.63;;;31.30;21.41
70730;BME280;58315;53.336;55.932;2023-06-14T07:12:07;100206.25;;;31.14;21.45
70730;BME280;58315;53.336;55.932;2023-06-14T07:14:33;100205.75;;;31.22;21.75
70730;BME280;58315;53.336;55.932;2023-06-14T07:16:59;100195.69;;;30.96;21.42
70730;BME280;58315;53.336;55.932;2023-06-14T07:19:25;100196.47;;;30.91;21.97
70730;BME280;58315;53.336;55.932;2023-06-14T07:21:52;100193.78;;;30.96;22.45
70730;BME280;58315;53.336;55.932;2023-06-14T07:24:20;100199.88;;;31.04;21.87
70730;BME280;58315;53.336;55.932;2023-06-14T07:26:47;100193.22;;;31.21;21.87
70730;BME280;58315;53.336;55.932;2023-06-14T07:29:16;100185.91;;;31.00;22.41
70730;BME280;58315;53.336;55.932;2023-06-14T07:31:42;100180.88;;;31.14;21.89
70730;BME280;58315;53.336;55.932;2023-06-14T07:34:09;100191.72;;;31.36;21.95
70730;BME280;58315;53.336;55.932;2023-06-14T07:36:35;100184.09;;;31.38;21.75
70730;BME280;58315;53.336;55.932;2023-06-14T07:39:02;100180.81;;;31.41;22.08
70730;BME280;58315;53.336;55.932;2023-06-14T07:41:29;100173.44;;;31.36;21.74
70730;BME280;58315;53.336;55.932;2023-06-14T07:43:55;100177.53;;;31.34;22.03
70730;BME280;58315;53.336;55.932;2023-06-14T07:46:21;100180.78;;;31.36;22.06
70730;BME280;58315;53.336;55.932;2023-06-14T07:48:48;100174.31;;;31.15;21.99
70730;BME280;58315;53.336;55.932;2023-06-14T07:51:14;100170.97;;;31.08;22.05
70730;BME280;58315;53.336;55.932;2023-06-14T07:53:40;100163.84;;;31.02;22.37
70730;BME280;58315;53.336;55.932;2023-06-14T07:56:07;100165.75;;;31.01;22.91
70730;BME280;58315;53.336;55.932;2023-06-14T07:58:33;100170.16;;;31.07;22.27
70730;BME280;58315;53.336;55.932;2023-06-14T08:00:59;100171.53;;;31.05;21.96
70730;BME280;58315;53.336;55.932;2023-06-14T08:03:27;100166.81;;;31.00;22.34
70730;BME280;58315;53.336;55.932;2023-06-14T08:05:53;100168.63;;;30.89;22.46
70730;BME280;58315;53.336;55.932;2023-06-14T08:08:19;100166.06;;;30.78;22.59
70730;BME280;58315;53.336;55.932;2023-06-14T08:10:45;100161.50;;;30.83;22.80
70730;BME280;58315;53.336;55.932;2023-06-14T08:13:11;100162.53;;;31.09;23.17
70730;BME280;58315;53.336;55.932;2023-06-14T08:15:37;100150.53;;;31.10;22.63
70730;BME280;58315;53.336;55.932;2023-06-14T08:18:03;100151.25;;;31.01;23.19
70730;BME280;58315;53.336;55.932;2023-06-14T08:20:29;100150.94;;;30.92;23.37
70730;BME280;58315;53.336;55.932;2023-06-14T08:22:57;100137.78;;;30.89;22.94
70730;BME280;58315;53.336;55.932;2023-06-14T08:25:24;100139.09;;;30.81;22.60
70730;BME280;58315;53.336;55.932;2023-06-14T08:27:50;100141.00;;;30.81;23.26
70730;BME280;58315;53.336;55.932;2023-06-14T08:30:16;100147.06;;;30.88;23.00
70730;BME280;58315;53.336;55.932;2023-06-14T08:32:43;100131.81;;;30.92;22.96
70730;BME280;58315;53.336;55.932;2023-06-14T08:35:09;100128.00;;;30.93;23.23
70730;BME280;58315;53.336;55.932;2023-06-14T08:37:41;100122.22;;;31.16;23.36
70730;BME280;58315;53.336;55.932;2023-06-14T08:40:21;100125.31;;;31.30;23.03
70730;BME280;58315;53.336;55.932;2023-06-14T08:42:52;100128.19;;;31.51;23.44
70730;BME280;58315;53.336;55.932;2023-06-14T08:45:23;100123.34;;;31.58;22.86
70730;BME280;58315;53.336;55.932;2023-06-14T08:47:50;100123.59;;;31.56;22.44
70730;BME280;58315;53.336;55.932;2023-06-14T08:50:21;100120.13;;;31.71;22.47
70730;BME280;58315;53.336;55.932;2023-06-14T08:52:58;100112.81;;;31.82;22.70
70730;BME280;58315;53.336;55.932;2023-06-14T08:55:29;100109.53;;;31.85;22.73
70730;BME280;58315;53.336;55.932;2023-06-14T08:57:57;100112.44;;;31.63;22.73
70730;BME280;58315;53.336;55.932;2023-06-14T09:00:25;100107.22;;;31.56;22.49
70730;BME280;58315;53.336;55.932;2023-06-14T09:02:52;100111.53;;;31.47;22.52
70730;BME280;58315;53.336;55.932;2023-06-14T09:05:26;100106.66;;;31.54;23.23
70730;BME280;58315;53.336;55.932;2023-06-14T09:07:52;100102.25;;;31.48;22.30
70730;BME280;58315;53.336;55.932;2023-06-14T09:10:21;100091.91;;;31.55;22.52
70730;BME280;58315;53.336;55.932;2023-06-14T09:12:47;100093.56;;;31.56;22.94
70730;BME280;58315;53.336;55.932;2023-06-14T09:15:14;100100.69;;;31.62;22.87
70730;BME280;58315;53.336;55.932;2023-06-14T09:17:41;100093.56;;;31.56;22.77
70730;BME280;58315;53.336;55.932;2023-06-14T09:20:08;100093.00;;;31.54;22.75
70730;BME280;58315;53.336;55.932;2023-06-14T09:22:44;100087.47;;;31.39;23.14
70730;BME280;58315;53.336;55.932;2023-06-14T09:25:10;100077.66;;;31.48;22.23
70730;BME280;58315;53.336;55.932;2023-06-14T09:27:41;100077.72;;;31.58;22.24
70730;BME280;58315;53.336;55.932;2023-06-14T09:30:09;100070.63;;;31.62;22.67
70730;BME280;58315;53.336;55.932;2023-06-14T09:32:39;100069.34;;;31.28;22.92
70730;BME280;58315;53.336;55.932;2023-06-14T09:35:07;100066.38;;;30.97;23.32
70730;BME280;58315;53.336;55.932;2023-06-14T09:37:34;100064.78;;;31.01;23.04
70730;BME280;58315;53.336;55.932;2023-06-14T09:40:01;100060.38;;;30.95;23.40
70730;BME280;58315;53.336;55.932;2023-06-14T09:42:31;100060.91;;;30.92;23.13
70730;BME280;58315;53.336;55.932;2023-06-14T09:44:57;100078.09;;;30.92;23.10
70730;BME280;58315;53.336;55.932;2023-06-14T09:47:24;100077.88;;;30.99;22.96
70730;BME280;58315;53.336;55.932;2023-06-14T09:49:51;100068.03;;;30.98;23.04
70730;BME280;58315;53.336;55.932;2023-06-14T09:52:21;100069.19;;;31.07;23.25
70730;BME280;58315;53.336;55.932;2023-06-14T09:54:48;100067.88;;;31.15;23.41
70730;BME280;58315;53.336;55.932;2023-06-14T09:57:20;100069.75;;;31.09;23.78
70730;BME280;58315;53.336;55.932;2023-06-14T09:59:47;100074.09;;;31.05;23.89
70730;BME280;58315;53.336;55.932;2023-06-14T10:02:28;100069.16;;;31.02;23.46
70730;BME280;58315;53.336;55.932;2023-06-14T10:07:35;100071.38;;;31.05;24.02
70730;BME280;58315;53.336;55.932;2023-06-14T10:10:05;100065.41;;;31.13;24.00
70730;BME280;58315;53.336;55.932;2023-06-14T10:12:32;100069.56;;;31.21;23.62
70730;BME280;58315;53.336;55.932;2023-06-14T10:14:59;100069.84;;;31.25;23.35
70730;BME280;58315;53.336;55.932;2023-06-14T10:17:46;100055.75;;;31.33;23.77
70730;BME280;58315;53.336;55.932;2023-06-14T10:20:28;100051.78;;;31.56;23.52
70730;BME280;58315;53.336;55.932;2023-06-14T10:23:01;100042.28;;;31.68;23.66
70730;BME280;58315;53.336;55.932;2023-06-14T10:25:30;100043.59;;;31.61;23.43
70730;BME280;58315;53.336;55.932;2023-06-14T10:28:23;100040.00;;;31.50;23.57
70730;BME280;58315;53.336;55.932;2023-06-14T10:31:09;100036.81;;;31.68;23.46
70730;BME280;58315;53.336;55.932;2023-06-14T10:33:40;100029.59;;;31.47;23.23
70730;BME280;58315;53.336;55.932;2023-06-14T10:36:27;100039.53;;;31.68;22.99
70730;BME280;58315;53.336;55.932;2023-06-14T10:39:06;100041.06;;;31.44;23.40
70730;BME280;58315;53.336;55.932;2023-06-14T10:41:36;100029.66;;;31.52;23.57
70730;BME280;58315;53.336;55.932;2023-06-14T10:46:46;100011.38;;;31.63;23.19
70730;BME280;58315;53.336;55.932;2023-06-14T10:49:12;100016.84;;;31.63;22.83
70730;BME280;58315;53.336;55.932;2023-06-14T10:51:41;100000.16;;;31.49;22.80
70730;BME280;58315;53.336;55.932;2023-06-14T10:54:13;100010.53;;;31.52;22.89
70730;BME280;58315;53.336;55.932;2023-06-14T10:56:52;100005.66;;;31.69;23.15
70730;BME280;58315;53.336;55.932;2023-06-14T10:59:20;99999.53;;;31.37;23.55
70730;BME280;58315;53.336;55.932;2023-06-14T11:04:52;99993.53;;;31.35;23.46
70730;BME280;58315;53.336;55.932;2023-06-14T11:07:42;99984.75;;;31.33;23.89
70730;BME280;58315;53.336;55.932;2023-06-14T11:12:54;99982.50;;;31.25;23.50
70730;BME280;58315;53.336;55.932;2023-06-14T11:15:20;99983.03;;;31.16;23.36
70730;BME280;58315;53.336;55.932;2023-06-14T11:17:56;99983.03;;;31.21;23.84
70730;BME280;58315;53.336;55.932;2023-06-14T11:20:29;99976.06;;;31.41;23.69
70730;BME280;58315;53.336;55.932;2023-06-14T11:22:56;99977.66;;;31.32;23.71
70730;BME280;58315;53.336;55.932;2023-06-14T11:25:22;99985.41;;;31.50;23.38
70730;BME280;58315;53.336;55.932;2023-06-14T11:27:50;99972.31;;;31.52;23.45
70730;BME280;58315;53.336;55.932;2023-06-14T11:30:16;99973.31;;;31.36;23.98
70730;BME280;58315;53.336;55.932;2023-06-14T11:32:46;99959.13;;;31.39;23.68
70730;BME280;58315;53.336;55.932;2023-06-14T11:35:13;99971.16;;;31.43;24.11
70730;BME280;58315;53.336;55.932;2023-06-14T11:37:39;99968.44;;;31.43;23.86
70730;BME280;58315;53.336;55.932;2023-06-14T11:40:09;99972.31;;;31.52;23.92
70730;BME280;58315;53.336;55.932;2023-06-14T11:42:36;99973.91;;;31.43;23.54
70730;BME280;58315;53.336;55.932;2023-06-14T11:45:03;99972.06;;;31.11;24.04
70730;BME280;58315;53.336;55.932;2023-06-14T11:47:32;99960.47;;;30.89;24.33
70730;BME280;58315;53.336;55.932;2023-06-14T11:50:02;99958.56;;;30.89;24.47
70730;BME280;58315;53.336;55.932;2023-06-14T11:52:30;99962.75;;;31.02;23.80
70730;BME280;58315;53.336;55.932;2023-06-14T11:54:57;99956.13;;;30.93;24.13
70730;BME280;58315;53.336;55.932;2023-06-14T11:57:23;99957.53;;;30.95;24.44
70730;BME280;58315;53.336;55.932;2023-06-14T11:59:50;99948.97;;;30.82;24.33
70730;BME280;58315;53.336;55.932;2023-06-14T12:02:16;99955.00;;;30.84;24.26
70730;BME280;58315;53.336;55.932;2023-06-14T12:04:49;99933.84;;;31.06;23.99
70730;BME280;58315;53.336;55.932;2023-06-14T12:07:16;99937.03;;;30.93;24.16
70730;BME280;58315;53.336;55.932;2023-06-14T12:12:21;99939.59;;;31.05;23.88
70730;BME280;58315;53.336;55.932;2023-06-14T12:14:49;99943.66;;;31.07;24.07
70730;BME280;58315;53.336;55.932;2023-06-14T12:17:17;99936.56;;;31.01;24.32
70730;BME280;58315;53.336;55.932;2023-06-14T12:19:44;99933.84;;;31.06;23.95
70730;BME280;58315;53.336;55.932;2023-06-14T12:22:12;99928.66;;;31.05;24.65
70730;BME280;58315;53.336;55.932;2023-06-14T12:24:38;99928.66;;;31.05;24.86
70730;BME280;58315;53.336;55.932;2023-06-14T12:27:05;99919.16;;;31.12;24.68
70730;BME280;58315;53.336;55.932;2023-06-14T12:29:32;99927.28;;;31.07;24.76
70730;BME280;58315;53.336;55.932;2023-06-14T12:31:58;99925.06;;;30.94;24.79
70730;BME280;58315;53.336;55.932;2023-06-14T12:34:24;99919.78;;;30.77;24.63
70730;BME280;58315;53.336;55.932;2023-06-14T12:36:50;99907.91;;;30.61;25.07
70730;BME280;58315;53.336;55.932;2023-06-14T12:39:16;99917.41;;;30.54;24.96
70730;BME280;58315;53.336;55.932;2023-06-14T12:41:43;99915.44;;;30.49;24.98
70730;BME280;58315;53.336;55.932;2023-06-14T12:44:11;99914.41;;;30.55;24.92
70730;BME280;58315;53.336;55.932;2023-06-14T12:46:37;99914.94;;;30.52;25.56
70730;BME280;58315;53.336;55.932;2023-06-14T12:49:09;99911.38;;;30.51;25.16
70730;BME280;58315;53.336;55.932;2023-06-14T12:51:35;99909.47;;;30.52;24.96
70730;BME280;58315;53.336;55.932;2023-06-14T12:54:02;99912.09;;;30.37;25.51
70730;BME280;58315;53.336;55.932;2023-06-14T12:56:28;99910.91;;;30.27;25.70
70730;BME280;58315;53.336;55.932;2023-06-14T12:58:54;99908.44;;;30.21;25.43
70730;BME280;58315;53.336;55.932;2023-06-14T13:01:20;99899.44;;;30.20;25.42
70730;BME280;58315;53.336;55.932;2023-06-14T13:03:47;99894.31;;;30.29;25.22